Time;durP1;ratioP1;P1;durP2;ratioP2;P2;SDS_P1;SDS_P2;PMS_P1;PMS_P2;Temp;Humidity;BMP_temperature;BMP_pressure;BME280_temperature;BME280_humidity;BME280_pressure;Samples;Min_cycle;Max_cycle;Signal;HPM_P1;HPM_P2
2022/04/25 00:00:47;;;;;;;;;;;;;;;;;;5093242;28;908;-67
2022/04/25 00:03:13;;;;;;;;;;;;;;;;;;5093171;28;1917;-67
2022/04/25 00:05:38;;;;;;;;;;;;;;;;;;5093483;28;915;-67
2022/04/25 00:08:03;;;;;;;;;;;;;;;;;;5091515;28;1263;-67
2022/04/25 00:10:28;;;;;;;;;;;;;;;;;;5093513;28;915;-67
2022/04/25 00:12:53;;;;;;;;;;;;;;;;;;5074732;28;1171;-67
2022/04/25 00:15:19;;;;;;;;;;;;;;;;;;5092685;28;1042;-67
2022/04/25 00:17:44;;;;;;;;;;;;;;;;;;5092900;28;875;-67
2022/04/25 00:20:10;;;;;;;;;;;;;;;;;;5091548;28;1211;-67
2022/04/25 00:22:35;;;;;;;;;;;;;;;;;;5091256;28;1910;-67
2022/04/25 00:25:02;;;;;;;;;;;;;;;;;;5091525;28;1172;-67
2022/04/25 00:27:29;;;;;;;;;;;;;;;;;;5092843;28;829;-66
2022/04/25 00:29:55;;;;;;;;;;;;;;;;;;5091108;28;1155;-67
2022/04/25 00:32:20;;;;;;;;;;;;;;;;;;5078758;28;1200;-67
2022/04/25 00:34:45;;;;;;;;;;;;;;;;;;5077064;28;1227;-67
2022/04/25 00:37:11;;;;;;;;;;;;;;;;;;5081246;28;1203;-67
2022/04/25 00:39:36;;;;;;;;;;;;;;;;;;5093040;28;833;-66
2022/04/25 00:42:01;;;;;;;;;;;;;;;;;;5090540;28;1961;-67
2022/04/25 00:44:26;;;;;;;;;;;;;;;;;;5092457;28;1298;-67
2022/04/25 00:46:55;;;;;;;;;;;;;;;;;;5091295;28;1429;-67
2022/04/25 00:49:21;;;;;;;;;;;;;;;;;;5093174;28;816;-67
2022/04/25 00:51:47;;;;;;;;;;;;;;;;;;5074824;28;1198;-67
2022/04/25 00:54:13;;;;;;;;;;;;;;;;;;5090754;28;1194;-67
2022/04/25 00:56:38;;;;;;;;;;;;;;;;;;5092064;28;1242;-67
2022/04/25 00:59:04;;;;;;;;;;;;;;;;;;5090661;28;1006;-67
2022/04/25 01:01:31;;;;;;;;;;;;;;;;;;5092757;28;1905;-67
2022/04/25 01:03:57;;;;;;;;;;;;;;;;;;5090604;28;1226;-67
2022/04/25 01:06:22;;;;;;;;;;;;;;;;;;5092916;28;928;-67
2022/04/25 01:08:48;;;;;;;;;;;;;;;;;;5092100;28;848;-67
2022/04/25 01:11:13;;;;;;;;;;;;;;;;;;5090377;28;876;-67
2022/04/25 01:13:39;;;;;;;;;;;;;;;;;;5091173;28;872;-67
2022/04/25 01:16:04;;;;;;;;;;;;;;;;;;5091578;28;887;-67
2022/04/25 01:18:29;;;;;;;;;;;;;;;;;;5092282;28;958;-66
2022/04/25 01:20:56;;;;;;;;;;;;;;;;;;5091949;28;821;-67
2022/04/25 01:28:51;;;;;;;;;;;;;;;;;;5092735;28;585;-67
2022/04/25 01:31:16;;;;;;;;;;;;;;;;;;5091140;28;856;-67
2022/04/25 01:33:41;;;;;;;;;;;;;;;;;;5091634;28;919;-67
2022/04/25 01:36:07;;;;;;;;;;;;;;;;;;5089468;28;935;-67
2022/04/25 01:38:33;;;;;;;;;;;;;;;;;;5091874;28;824;-67
2022/04/25 01:40:58;;;;;;;;;;;;;;;;;;5091399;28;927;-67
2022/04/25 01:43:24;;;;;;;;;;;;;;;;;;5091965;28;1961;-67
2022/04/25 01:45:50;;;;;;;;;;;;;;;;;;5079508;28;1271;-67
2022/04/25 01:48:15;;;;;;;;;;;;;;;;;;5096723;28;840;-67
2022/04/25 01:50:41;;;;;;;;;;;;;;;;;;5098394;28;987;-67
2022/04/25 01:53:06;;;;;;;;;;;;;;;;;;5097576;28;1006;-67
2022/04/25 01:55:32;;;;;;;;;;;;;;;;;;5098137;28;1050;-66
2022/04/25 01:57:57;;;;;;;;;;;;;;;;;;5079544;28;1275;-67
2022/04/25 02:00:23;;;;;;;;;;;;;;;;;;5096833;28;1198;-67
2022/04/25 02:02:48;;;;;;;;;;;;;;;;;;5098333;28;1918;-67
2022/04/25 02:05:13;;;;;;;;;;;;;;;;;;5097658;28;843;-67
2022/04/25 02:07:38;;;;;;;;;;;;;;;;;;5098746;28;805;-67
2022/04/25 02:10:04;;;;;;;;;;;;;;;;;;5097774;28;1003;-67
2022/04/25 02:12:29;;;;;;;;;;;;;;;;;;5098079;28;875;-67
2022/04/25 02:14:55;;;;;;;;;;;;;;;;;;5098106;28;777;-67
2022/04/25 02:17:20;;;;;;;;;;;;;;;;;;5097712;28;1002;-66
2022/04/25 02:19:45;;;;;;;;;;;;;;;;;;5098171;28;928;-67
2022/04/25 02:22:11;;;;;;;;;;;;;;;;;;5097782;28;1924;-66
2022/04/25 02:24:37;;;;;;;;;;;;;;;;;;5097276;28;1281;-67
2022/04/25 02:27:03;;;;;;;;;;;;;;;;;;5098159;28;971;-66
2022/04/25 02:29:28;;;;;;;;;;;;;;;;;;5098827;28;781;-66
2022/04/25 02:31:53;;;;;;;;;;;;;;;;;;5098327;28;901;-66
2022/04/25 02:34:19;;;;;;;;;;;;;;;;;;5097417;28;1435;-66
2022/04/25 02:36:45;;;;;;;;;;;;;;;;;;5098570;28;955;-66
2022/04/25 02:39:10;;;;;;;;;;;;;;;;;;5097217;28;848;-66
2022/04/25 02:41:35;;;;;;;;;;;;;;;;;;5098406;28;1956;-66
2022/04/25 02:44:00;;;;;;;;;;;;;;;;;;5097794;28;1179;-66
2022/04/25 02:46:26;;;;;;;;;;;;;;;;;;5097991;28;1195;-66
2022/04/25 02:48:51;;;;;;;;;;;;;;;;;;5098095;28;868;-66
2022/04/25 02:51:17;;;;;;;;;;;;;;;;;;5096158;28;861;-66
2022/04/25 02:53:42;;;;;;;;;;;;;;;;;;5097790;28;856;-66
2022/04/25 02:56:08;;;;;;;;;;;;;;;;;;5095289;28;982;-66
2022/04/25 02:58:34;;;;;;;;;;;;;;;;;;5095699;28;920;-66
2022/04/25 03:01:00;;;;;;;;;;;;;;;;;;5095613;28;832;-67
2022/04/25 03:03:25;;;;;;;;;;;;;;;;;;5095690;28;1943;-66
2022/04/25 03:05:51;;;;;;;;;;;;;;;;;;5095679;28;966;-67
2022/04/25 03:08:18;;;;;;;;;;;;;;;;;;5094932;28;907;-67
2022/04/25 03:10:45;;;;;;;;;;;;;;;;;;5095836;28;872;-67
2022/04/25 03:13:10;;;;;;;;;;;;;;;;;;5095508;28;883;-67
2022/04/25 03:15:39;;;;;;;;;;;;;;;;;;5095446;28;899;-66
2022/04/25 03:18:11;;;;;;;;;;;;;;;;;;5094726;28;935;-66
2022/04/25 03:20:36;;;;;;;;;;;;;;;;;;5093717;28;1321;-66
2022/04/25 03:23:02;;;;;;;;;;;;;;;;;;5094723;28;1901;-66
2022/04/25 03:25:28;;;;;;;;;;;;;;;;;;5080371;28;1116;-66
2022/04/25 03:27:53;;;;;;;;;;;;;;;;;;5075036;28;809;-66
2022/04/25 03:30:19;;;;;;;;;;;;;;;;;;5074191;28;891;-66
2022/04/25 03:32:47;;;;;;;;;;;;;;;;;;5074079;28;916;-66
2022/04/25 03:35:13;;;;;;;;;;;;;;;;;;5073998;28;963;-66
2022/04/25 03:37:38;;;;;;;;;;;;;;;;;;5074210;28;916;-66
2022/04/25 03:40:05;;;;;;;;;;;;;;;;;;5073786;28;1011;-66
2022/04/25 03:42:30;;;;;;;;;;;;;;;;;;5074128;28;1906;-67
2022/04/25 03:44:55;;;;;;;;;;;;;;;;;;5072182;28;1070;-66
2022/04/25 03:47:20;;;;;;;;;;;;;;;;;;5072146;28;836;-66
2022/04/25 03:49:46;;;;;;;;;;;;;;;;;;5073250;28;895;-66
2022/04/25 03:52:11;;;;;;;;;;;;;;;;;;5073108;28;983;-67
2022/04/25 03:57:21;;;;;;;;;;;;;;;;;;5073072;28;705;-67
2022/04/25 03:59:46;;;;;;;;;;;;;;;;;;5071508;28;1352;-66
2022/04/25 04:02:11;;;;;;;;;;;;;;;;;;5073225;28;1979;-67
2022/04/25 04:04:36;;;;;;;;;;;;;;;;;;5073033;28;868;-67
2022/04/25 04:07:02;;;;;;;;;;;;;;;;;;5072600;28;820;-67
2022/04/25 04:09:46;;;;;;;;;;;;;;;;;;5070943;28;1211;-67
2022/04/25 04:12:11;;;;;;;;;;;;;;;;;;5072627;28;825;-67
2022/04/25 04:14:37;;;;;;;;;;;;;;;;;;5071346;28;801;-66
2022/04/25 04:17:03;;;;;;;;;;;;;;;;;;5072576;28;983;-66
2022/04/25 04:19:28;;;;;;;;;;;;;;;;;;5072914;28;975;-66
2022/04/25 04:21:53;;;;;;;;;;;;;;;;;;5071596;28;1918;-66
2022/04/25 04:24:18;;;;;;;;;;;;;;;;;;5071240;28;848;-66
2022/04/25 04:26:44;;;;;;;;;;;;;;;;;;5073028;28;836;-66
2022/04/25 04:29:09;;;;;;;;;;;;;;;;;;5070810;28;1269;-66
2022/04/25 04:31:34;;;;;;;;;;;;;;;;;;5070727;28;1286;-66
2022/04/25 04:33:59;;;;;;;;;;;;;;;;;;5072339;28;979;-66
2022/04/25 04:36:26;;;;;;;;;;;;;;;;;;5072306;28;825;-67
2022/04/25 04:38:51;;;;;;;;;;;;;;;;;;5071081;28;1204;-67
2022/04/25 04:41:16;;;;;;;;;;;;;;;;;;5071096;28;954;-67
2022/04/25 04:43:41;;;;;;;;;;;;;;;;;;5071813;28;1947;-67
2022/04/25 04:46:07;;;;;;;;;;;;;;;;;;5071523;28;1307;-67
2022/04/25 04:48:32;;;;;;;;;;;;;;;;;;5071690;28;919;-67
2022/04/25 04:50:58;;;;;;;;;;;;;;;;;;5071658;28;1053;-67
2022/04/25 04:53:23;;;;;;;;;;;;;;;;;;5070799;28;1459;-67
2022/04/25 04:55:49;;;;;;;;;;;;;;;;;;5070490;28;959;-67
2022/04/25 04:58:14;;;;;;;;;;;;;;;;;;5071687;28;1004;-67
2022/04/25 05:00:39;;;;;;;;;;;;;;;;;;5072081;28;871;-67
2022/04/25 05:03:05;;;;;;;;;;;;;;;;;;5071580;28;1934;-67
2022/04/25 05:05:30;;;;;;;;;;;;;;;;;;5071517;28;809;-67
2022/04/25 05:07:55;;;;;;;;;;;;;;;;;;5070427;28;1238;-67
2022/04/25 05:10:21;;;;;;;;;;;;;;;;;;5076072;28;1277;-67
2022/04/25 05:12:49;;;;;;;;;;;;;;;;;;5090459;28;1447;-67
2022/04/25 05:15:15;;;;;;;;;;;;;;;;;;5091083;28;911;-67
2022/04/25 05:17:41;;;;;;;;;;;;;;;;;;5091327;28;844;-67
2022/04/25 05:20:06;;;;;;;;;;;;;;;;;;5090364;28;1144;-67
2022/04/25 05:22:32;;;;;;;;;;;;;;;;;;5090535;28;1898;-67
2022/04/25 05:24:58;;;;;;;;;;;;;;;;;;5091351;28;821;-65
2022/04/25 05:27:23;;;;;;;;;;;;;;;;;;5091194;28;1183;-66
2022/04/25 05:29:49;;;;;;;;;;;;;;;;;;5090375;28;978;-66
2022/04/25 05:32:14;;;;;;;;;;;;;;;;;;5090606;28;908;-66
2022/04/25 05:34:39;;;;;;;;;;;;;;;;;;5091579;28;892;-66
2022/04/25 05:37:04;;;;;;;;;;;;;;;;;;5090182;28;1189;-67
2022/04/25 05:39:30;;;;;;;;;;;;;;;;;;5091499;28;987;-67
2022/04/25 05:41:55;;;;;;;;;;;;;;;;;;5090560;28;2036;-67
2022/04/25 05:44:20;;;;;;;;;;;;;;;;;;5091264;28;1081;-67
2022/04/25 05:46:45;;;;;;;;;;;;;;;;;;5090540;28;777;-67
2022/04/25 05:52:02;;;;;;;;;;;;;;;;;;5092317;28;703;-67
2022/04/25 05:54:28;;;;;;;;;;;;;;;;;;5091566;28;927;-67
2022/04/25 05:56:53;;;;;;;;;;;;;;;;;;5092214;28;974;-66
2022/04/25 05:59:19;;;;;;;;;;;;;;;;;;5091595;28;1047;-67
2022/04/25 06:01:44;;;;;;;;;;;;;;;;;;5090459;28;1973;-67
2022/04/25 06:04:10;;;;;;;;;;;;;;;;;;5090305;28;2367;-67
2022/04/25 06:06:35;;;;;;;;;;;;;;;;;;5090084;28;959;-66
2022/04/25 06:09:01;;;;;;;;;;;;;;;;;;5090093;28;1325;-67
2022/04/25 06:11:26;;;;;;;;;;;;;;;;;;5092041;28;861;-67
2022/04/25 06:13:52;;;;;;;;;;;;;;;;;;5090252;28;1171;-67
2022/04/25 06:16:17;;;;;;;;;;;;;;;;;;5089915;28;1206;-67
2022/04/25 06:18:42;;;;;;;;;;;;;;;;;;5091294;28;864;-67
2022/04/25 06:21:08;;;;;;;;;;;;;;;;;;5091441;28;943;-67
2022/04/25 06:23:33;;;;;;;;;;;;;;;;;;5091339;28;1906;-67
2022/04/25 06:25:58;;;;;;;;;;;;;;;;;;5089639;28;913;-67
2022/04/25 06:28:28;;;;;;;;;;;;;;;;;;5089953;28;1182;-67
2022/04/25 06:30:54;;;;;;;;;;;;;;;;;;5090343;28;840;-66
2022/04/25 06:33:19;;;;;;;;;;;;;;;;;;5077097;28;1800;-67
2022/04/25 06:35:45;;;;;;;;;;;;;;;;;;5095043;28;1077;-67
2022/04/25 06:38:11;;;;;;;;;;;;;;;;;;5094452;28;880;-66
2022/04/25 06:40:37;;;;;;;;;;;;;;;;;;5094639;28;879;-66
2022/04/25 06:43:03;;;;;;;;;;;;;;;;;;5093071;28;1902;-66
2022/04/25 06:45:29;;;;;;;;;;;;;;;;;;5093618;28;1314;-66
2022/04/25 06:47:54;;;;;;;;;;;;;;;;;;5094269;28;817;-66
2022/04/25 06:50:19;;;;;;;;;;;;;;;;;;5093392;28;861;-66
2022/04/25 06:52:45;;;;;;;;;;;;;;;;;;5094276;28;899;-66
2022/04/25 06:55:10;;;;;;;;;;;;;;;;;;5093217;28;928;-66
2022/04/25 06:57:36;;;;;;;;;;;;;;;;;;5093307;28;848;-66
2022/04/25 07:00:04;;;;;;;;;;;;;;;;;;5092734;28;1194;-66
2022/04/25 07:02:29;;;;;;;;;;;;;;;;;;5094528;28;1969;-66
2022/04/25 07:04:55;;;;;;;;;;;;;;;;;;5094500;28;908;-66
2022/04/25 07:07:21;;;;;;;;;;;;;;;;;;5094429;28;820;-67
2022/04/25 07:09:46;;;;;;;;;;;;;;;;;;5092800;28;864;-66
2022/04/25 07:12:11;;;;;;;;;;;;;;;;;;5092665;28;908;-66
2022/04/25 07:14:37;;;;;;;;;;;;;;;;;;5092707;28;868;-66
2022/04/25 07:17:03;;;;;;;;;;;;;;;;;;5092029;28;932;-66
2022/04/25 07:19:29;;;;;;;;;;;;;;;;;;5094160;28;884;-66
2022/04/25 07:30:06;;;;;;;;;;;;;;;;;;5094271;28;670;-67
2022/04/25 07:32:32;;;;;;;;;;;;;;;;;;5093769;28;844;-67
2022/04/25 07:34:58;;;;;;;;;;;;;;;;;;5092136;28;853;-67
2022/04/25 07:37:24;;;;;;;;;;;;;;;;;;5094245;28;939;-67
2022/04/25 07:39:49;;;;;;;;;;;;;;;;;;5092830;28;1084;-66
2022/04/25 07:42:15;;;;;;;;;;;;;;;;;;5093511;28;1894;-67
2022/04/25 07:44:41;;;;;;;;;;;;;;;;;;5093754;28;1080;-66
2022/04/25 07:47:07;;;;;;;;;;;;;;;;;;5093936;28;861;-67
2022/04/25 07:49:35;;;;;;;;;;;;;;;;;;5093677;28;825;-67
2022/04/25 07:52:00;;;;;;;;;;;;;;;;;;5091732;28;1207;-66
2022/04/25 07:54:26;;;;;;;;;;;;;;;;;;5093695;28;935;-66
2022/04/25 07:56:51;;;;;;;;;;;;;;;;;;5093195;28;923;-67
2022/04/25 07:59:17;;;;;;;;;;;;;;;;;;5091163;28;1242;-67
2022/04/25 08:01:42;;;;;;;;;;;;;;;;;;5093131;28;1957;-67
2022/04/25 08:04:07;;;;;;;;;;;;;;;;;;5092582;28;849;-66
2022/04/25 08:06:33;;;;;;;;;;;;;;;;;;5091641;28;1202;-67
2022/04/25 08:08:58;;;;;;;;;;;;;;;;;;5092766;28;1091;-66
2022/04/25 08:11:23;;;;;;;;;;;;;;;;;;5091306;28;1257;-66
2022/04/25 08:19:17;;;;;;;;;;;;;;;;;;5092711;28;677;-66
2022/04/25 08:21:44;;;;;;;;;;;;;;;;;;5092670;28;1898;-66
2022/04/25 08:24:09;;;;;;;;;;;;;;;;;;5091749;28;982;-66
2022/04/25 08:26:34;;;;;;;;;;;;;;;;;;5092081;28;853;-66
2022/04/25 08:29:00;;;;;;;;;;;;;;;;;;5092094;28;872;-68
2022/04/25 08:31:26;;;;;;;;;;;;;;;;;;5074303;28;1232;-67
2022/04/25 08:33:51;;;;;;;;;;;;;;;;;;5090863;28;1330;-67
2022/04/25 08:36:18;;;;;;;;;;;;;;;;;;5090560;28;2263;-67
2022/04/25 08:38:43;;;;;;;;;;;;;;;;;;5092407;28;918;-67
2022/04/25 08:41:14;;;;;;;;;;;;;;;;;;5091561;28;924;-67
2022/04/25 08:43:40;;;;;;;;;;;;;;;;;;5092245;28;1967;-67
2022/04/25 08:46:07;;;;;;;;;;;;;;;;;;5091304;28;1092;-67
2022/04/25 08:48:33;;;;;;;;;;;;;;;;;;5090541;28;1349;-67
2022/04/25 08:51:00;;;;;;;;;;;;;;;;;;5091474;28;883;-67
2022/04/25 08:53:26;;;;;;;;;;;;;;;;;;5091638;28;1006;-67
2022/04/25 08:55:53;;;;;;;;;;;;;;;;;;5091765;28;761;-67
2022/04/25 08:58:19;;;;;;;;;;;;;;;;;;5090537;28;1569;-67
2022/04/25 09:00:44;;;;;;;;;;;;;;;;;;5092217;28;876;-67
2022/04/25 09:03:10;;;;;;;;;;;;;;;;;;5091542;28;1965;-67
2022/04/25 09:05:36;;;;;;;;;;;;;;;;;;5091191;28;1458;-67
2022/04/25 09:08:02;;;;;;;;;;;;;;;;;;5092492;28;939;-67
2022/04/25 09:10:29;;;;;;;;;;;;;;;;;;5092591;28;975;-67
2022/04/25 09:12:54;;;;;;;;;;;;;;;;;;5092673;28;899;-67
2022/04/25 09:15:23;;;;;;;;;;;;;;;;;;5075016;28;1250;-67
2022/04/25 09:17:49;;;;;;;;;;;;;;;;;;5091021;28;860;-67
2022/04/25 09:20:15;;;;;;;;;;;;;;;;;;5091049;28;1296;-66
2022/04/25 09:22:40;;;;;;;;;;;;;;;;;;5091018;28;1898;-66
2022/04/25 09:25:07;;;;;;;;;;;;;;;;;;5092237;28;1005;-66
2022/04/25 09:27:33;;;;;;;;;;;;;;;;;;5092686;28;1084;-66
2022/04/25 09:30:12;;;;;;;;;;;;;;;;;;5092037;28;836;-66
2022/04/25 09:32:37;;;;;;;;;;;;;;;;;;5092413;28;828;-66
2022/04/25 09:35:21;;;;;;;;;;;;;;;;;;5090384;28;759;-67
2022/04/25 09:37:47;;;;;;;;;;;;;;;;;;5092094;28;922;-66
2022/04/25 09:40:17;;;;;;;;;;;;;;;;;;5090034;28;1338;-66
2022/04/25 09:42:43;;;;;;;;;;;;;;;;;;5091666;28;1955;-67
2022/04/25 09:45:08;;;;;;;;;;;;;;;;;;5090920;28;1076;-67
2022/04/25 09:47:34;;;;;;;;;;;;;;;;;;5073609;28;1219;-66
2022/04/25 09:50:18;;;;;;;;;;;;;;;;;;5090102;28;1230;-67
2022/04/25 09:52:53;;;;;;;;;;;;;;;;;;5092081;28;837;-66
2022/04/25 09:55:19;;;;;;;;;;;;;;;;;;5090655;28;1555;-66
2022/04/25 09:57:46;;;;;;;;;;;;;;;;;;5091015;28;978;-66
2022/04/25 10:00:13;;;;;;;;;;;;;;;;;;5090388;28;1325;-66
2022/04/25 10:02:39;;;;;;;;;;;;;;;;;;5091274;28;1914;-66
2022/04/25 10:05:15;;;;;;;;;;;;;;;;;;5092313;28;754;-66
2022/04/25 10:07:42;;;;;;;;;;;;;;;;;;5098951;28;824;-67
2022/04/25 10:10:08;;;;;;;;;;;;;;;;;;5098660;28;900;-67
2022/04/25 10:12:35;;;;;;;;;;;;;;;;;;5099651;28;927;-67
2022/04/25 10:15:00;;;;;;;;;;;;;;;;;;5097490;28;847;-66
2022/04/25 10:17:26;;;;;;;;;;;;;;;;;;5097638;28;974;-67
2022/04/25 10:19:53;;;;;;;;;;;;;;;;;;5098575;28;1025;-68
2022/04/25 10:22:20;;;;;;;;;;;;;;;;;;5096893;28;1897;-66
2022/04/25 10:24:46;;;;;;;;;;;;;;;;;;5097109;28;1066;-66
2022/04/25 10:27:14;;;;;;;;;;;;;;;;;;5097122;28;887;-67
2022/04/25 10:29:43;;;;;;;;;;;;;;;;;;5095394;28;924;-68
2022/04/25 10:32:10;;;;;;;;;;;;;;;;;;5096261;28;832;-67
2022/04/25 10:34:54;;;;;;;;;;;;;;;;;;5094896;28;1190;-66
2022/04/25 10:37:32;;;;;;;;;;;;;;;;;;5094588;28;1159;-65
2022/04/25 10:39:58;;;;;;;;;;;;;;;;;;5093754;28;1179;-68
2022/04/25 10:45:09;;;;;;;;;;;;;;;;;;5095069;28;1057;-66
2022/04/25 10:47:34;;;;;;;;;;;;;;;;;;5094821;28;848;-66
2022/04/25 10:50:02;;;;;;;;;;;;;;;;;;5094842;28;808;-66
2022/04/25 10:52:33;;;;;;;;;;;;;;;;;;5095107;28;809;-66
2022/04/25 10:55:13;;;;;;;;;;;;;;;;;;5095100;28;778;-67
2022/04/25 10:57:58;;;;;;;;;;;;;;;;;;5095181;28;896;-67
2022/04/25 11:03:04;;;;;;;;;;;;;;;;;;5094727;28;1870;-67
2022/04/25 11:05:29;;;;;;;;;;;;;;;;;;5094856;28;808;-67
2022/04/25 11:08:14;;;;;;;;;;;;;;;;;;5095035;28;1001;-66
2022/04/25 11:10:42;;;;;;;;;;;;;;;;;;5094818;28;960;-66
2022/04/25 11:13:08;;;;;;;;;;;;;;;;;;5094289;28;987;-66
2022/04/25 11:15:40;;;;;;;;;;;;;;;;;;5093327;28;1420;-67
2022/04/25 11:18:34;;;;;;;;;;;;;;;;;;5093083;28;908;-67
2022/04/25 11:21:12;;;;;;;;;;;;;;;;;;5088235;28;1108;-66
2022/04/25 11:23:43;;;;;;;;;;;;;;;;;;5094287;28;1961;-67
2022/04/25 11:26:10;;;;;;;;;;;;;;;;;;5093999;28;991;-67
2022/04/25 11:28:55;;;;;;;;;;;;;;;;;;5094091;28;832;-66
2022/04/25 11:31:22;;;;;;;;;;;;;;;;;;5093457;28;1090;-66
2022/04/25 11:33:48;;;;;;;;;;;;;;;;;;5094027;28;843;-67
2022/04/25 11:36:13;;;;;;;;;;;;;;;;;;5092148;28;959;-66
2022/04/25 11:41:23;;;;;;;;;;;;;;;;;;5093880;28;615;-67
2022/04/25 11:43:49;;;;;;;;;;;;;;;;;;5093727;28;1866;-67
2022/04/25 11:46:14;;;;;;;;;;;;;;;;;;5091361;28;1241;-66
2022/04/25 11:48:40;;;;;;;;;;;;;;;;;;5093361;28;915;-67
2022/04/25 11:51:05;;;;;;;;;;;;;;;;;;5093555;28;899;-66
2022/04/25 11:53:31;;;;;;;;;;;;;;;;;;5092182;28;1135;-67
2022/04/25 11:55:56;;;;;;;;;;;;;;;;;;5075552;28;1217;-66
2022/04/25 11:58:29;;;;;;;;;;;;;;;;;;5093002;28;1007;-66
2022/04/25 12:00:54;;;;;;;;;;;;;;;;;;5091888;28;1687;-66
2022/04/25 12:03:21;;;;;;;;;;;;;;;;;;5093074;28;1973;-66
2022/04/25 12:05:46;;;;;;;;;;;;;;;;;;5092525;28;817;-67
2022/04/25 12:16:27;;;;;;;;;;;;;;;;;;5093107;28;665;-66
2022/04/25 12:18:52;;;;;;;;;;;;;;;;;;5091950;28;1258;-66
2022/04/25 12:21:18;;;;;;;;;;;;;;;;;;5092786;28;887;-66
2022/04/25 12:23:51;;;;;;;;;;;;;;;;;;5093083;28;1978;-66
2022/04/25 12:26:29;;;;;;;;;;;;;;;;;;5090910;28;1285;-66
2022/04/25 12:28:57;;;;;;;;;;;;;;;;;;5092086;28;936;-66
2022/04/25 12:31:22;;;;;;;;;;;;;;;;;;5092692;28;919;-66
2022/04/25 12:33:48;;;;;;;;;;;;;;;;;;5092840;28;785;-66
2022/04/25 12:36:16;;;;;;;;;;;;;;;;;;5092704;28;954;-66
2022/04/25 12:38:41;;;;;;;;;;;;;;;;;;5092770;28;840;-66
2022/04/25 12:41:07;;;;;;;;;;;;;;;;;;5092835;28;860;-66
2022/04/25 12:43:40;;;;;;;;;;;;;;;;;;5092599;28;1898;-66
2022/04/25 12:46:07;;;;;;;;;;;;;;;;;;5091057;28;1405;-66
2022/04/25 12:49:08;;;;;;;;;;;;;;;;;;5092918;28;860;-67
2022/04/25 12:51:33;;;;;;;;;;;;;;;;;;5030184;28;1566;-66
2022/04/25 12:53:58;;;;;;;;;;;;;;;;;;5079352;28;1068;-66
2022/04/25 12:56:31;;;;;;;;;;;;;;;;;;5092353;28;923;-65
2022/04/25 12:58:57;;;;;;;;;;;;;;;;;;5092550;28;899;-65
2022/04/25 13:01:33;;;;;;;;;;;;;;;;;;5090886;28;1202;-65
2022/04/25 13:04:04;;;;;;;;;;;;;;;;;;5092205;28;1961;-66
2022/04/25 13:06:30;;;;;;;;;;;;;;;;;;5092377;28;911;-66
2022/04/25 13:08:56;;;;;;;;;;;;;;;;;;5090547;28;1340;-66
2022/04/25 13:11:22;;;;;;;;;;;;;;;;;;5092310;28;864;-66
2022/04/25 13:13:48;;;;;;;;;;;;;;;;;;5090749;28;1163;-66
2022/04/25 13:16:13;;;;;;;;;;;;;;;;;;5091876;28;849;-66
2022/04/25 13:18:39;;;;;;;;;;;;;;;;;;5091365;28;1078;-66
2022/04/25 13:21:04;;;;;;;;;;;;;;;;;;5092010;28;888;-66
2022/04/25 13:23:30;;;;;;;;;;;;;;;;;;5089799;28;1955;-66
2022/04/25 13:25:55;;;;;;;;;;;;;;;;;;5090595;28;899;-66
2022/04/25 13:28:20;;;;;;;;;;;;;;;;;;5092002;28;899;-66
2022/04/25 13:30:46;;;;;;;;;;;;;;;;;;5089868;28;1379;-66
2022/04/25 13:33:11;;;;;;;;;;;;;;;;;;5073131;28;1223;-65
2022/04/25 13:35:36;;;;;;;;;;;;;;;;;;5091209;28;948;-67
2022/04/25 13:38:02;;;;;;;;;;;;;;;;;;5091304;28;1033;-66
2022/04/25 13:40:27;;;;;;;;;;;;;;;;;;5091140;28;836;-65
2022/04/25 13:42:53;;;;;;;;;;;;;;;;;;5090408;28;1894;-66
2022/04/25 13:45:19;;;;;;;;;;;;;;;;;;5089817;28;1399;-66
2022/04/25 13:47:44;;;;;;;;;;;;;;;;;;5090096;28;837;-66
2022/04/25 13:50:10;;;;;;;;;;;;;;;;;;5091452;28;1034;-66
2022/04/25 13:52:36;;;;;;;;;;;;;;;;;;5089791;28;1349;-66
2022/04/25 13:55:01;;;;;;;;;;;;;;;;;;5091553;28;852;-67
2022/04/25 13:57:27;;;;;;;;;;;;;;;;;;5091233;28;809;-67
2022/04/25 13:59:52;;;;;;;;;;;;;;;;;;5072833;28;1460;-67
2022/04/25 14:05:02;;;;;;;;;;;;;;;;;;5091362;28;697;-67
2022/04/25 14:07:27;;;;;;;;;;;;;;;;;;5089519;28;993;-67
2022/04/25 14:09:52;;;;;;;;;;;;;;;;;;5090086;28;780;-67
2022/04/25 14:12:18;;;;;;;;;;;;;;;;;;5089879;28;1282;-67
2022/04/25 14:14:43;;;;;;;;;;;;;;;;;;5091063;28;773;-66
2022/04/25 14:17:08;;;;;;;;;;;;;;;;;;5091508;28;828;-67
2022/04/25 14:19:34;;;;;;;;;;;;;;;;;;5089914;28;1201;-67
2022/04/25 14:21:59;;;;;;;;;;;;;;;;;;5073276;28;1921;-67
2022/04/25 14:24:25;;;;;;;;;;;;;;;;;;5089496;28;1258;-67
2022/04/25 14:26:51;;;;;;;;;;;;;;;;;;5090108;28;931;-67
2022/04/25 14:29:17;;;;;;;;;;;;;;;;;;5089349;28;828;-67
2022/04/25 14:31:42;;;;;;;;;;;;;;;;;;5091220;28;903;-67
2022/04/25 14:34:07;;;;;;;;;;;;;;;;;;5089974;28;1269;-67
2022/04/25 14:36:33;;;;;;;;;;;;;;;;;;5091433;28;879;-67
2022/04/25 14:38:58;;;;;;;;;;;;;;;;;;5091491;28;892;-67
2022/04/25 14:41:24;;;;;;;;;;;;;;;;;;5092061;28;824;-67
2022/04/25 14:43:49;;;;;;;;;;;;;;;;;;5089973;28;2001;-67
2022/04/25 14:46:15;;;;;;;;;;;;;;;;;;5090895;28;1333;-66
2022/04/25 14:48:40;;;;;;;;;;;;;;;;;;5089982;28;896;-66
2022/04/25 14:56:35;;;;;;;;;;;;;;;;;;5094527;28;647;-67
2022/04/25 14:59:01;;;;;;;;;;;;;;;;;;5092958;28;1324;-67
2022/04/25 15:01:27;;;;;;;;;;;;;;;;;;5094811;28;880;-68
2022/04/25 15:03:53;;;;;;;;;;;;;;;;;;5094557;28;1914;-67
2022/04/25 15:06:18;;;;;;;;;;;;;;;;;;5092955;28;1361;-67
2022/04/25 15:08:43;;;;;;;;;;;;;;;;;;5092786;28;1167;-67
2022/04/25 15:11:09;;;;;;;;;;;;;;;;;;5092333;28;1090;-67
2022/04/25 15:13:34;;;;;;;;;;;;;;;;;;5094467;28;877;-67
2022/04/25 15:16:03;;;;;;;;;;;;;;;;;;5092843;28;1239;-66
2022/04/25 15:18:28;;;;;;;;;;;;;;;;;;5094075;28;860;-66
2022/04/25 15:20:53;;;;;;;;;;;;;;;;;;5092458;28;1576;-67
2022/04/25 15:23:18;;;;;;;;;;;;;;;;;;5092255;28;1898;-66
2022/04/25 15:25:44;;;;;;;;;;;;;;;;;;5093649;28;987;-67
2022/04/25 15:28:10;;;;;;;;;;;;;;;;;;5092459;28;845;-67
2022/04/25 15:30:36;;;;;;;;;;;;;;;;;;5075915;28;1325;-67
2022/04/25 15:33:04;;;;;;;;;;;;;;;;;;5092789;28;770;-66
2022/04/25 15:35:30;;;;;;;;;;;;;;;;;;5092516;28;1170;-67
2022/04/25 15:37:56;;;;;;;;;;;;;;;;;;5092112;28;1234;-66
2022/04/25 15:40:21;;;;;;;;;;;;;;;;;;5093248;28;951;-66
2022/04/25 15:42:47;;;;;;;;;;;;;;;;;;5091927;28;1967;-66
2022/04/25 15:45:13;;;;;;;;;;;;;;;;;;5092523;28;1312;-66
2022/04/25 15:47:39;;;;;;;;;;;;;;;;;;5091999;28;1186;-66
2022/04/25 15:50:04;;;;;;;;;;;;;;;;;;5091533;28;1163;-66
2022/04/25 15:52:29;;;;;;;;;;;;;;;;;;5092947;28;899;-67
2022/04/25 15:57:46;;;;;;;;;;;;;;;;;;5092405;28;652;-67
2022/04/25 16:00:12;;;;;;;;;;;;;;;;;;5092016;28;891;-67
2022/04/25 16:02:37;;;;;;;;;;;;;;;;;;5092920;28;1985;-66
2022/04/25 16:05:02;;;;;;;;;;;;;;;;;;5074361;28;1187;-67
2022/04/25 16:07:28;;;;;;;;;;;;;;;;;;5091858;28;915;-67
2022/04/25 16:09:53;;;;;;;;;;;;;;;;;;5091853;28;1266;-67
2022/04/25 16:12:18;;;;;;;;;;;;;;;;;;5093051;28;880;-67
2022/04/25 16:14:44;;;;;;;;;;;;;;;;;;5093294;28;821;-66
2022/04/25 16:17:10;;;;;;;;;;;;;;;;;;5092978;28;946;-66
2022/04/25 16:19:35;;;;;;;;;;;;;;;;;;5093374;28;896;-67
2022/04/25 16:22:00;;;;;;;;;;;;;;;;;;5091664;28;1944;-66
2022/04/25 16:24:25;;;;;;;;;;;;;;;;;;5093042;28;868;-66
2022/04/25 16:26:51;;;;;;;;;;;;;;;;;;5093240;28;856;-66
2022/04/25 16:29:17;;;;;;;;;;;;;;;;;;5091920;28;1238;-67
2022/04/25 16:31:42;;;;;;;;;;;;;;;;;;5093204;28;774;-67
2022/04/25 16:34:07;;;;;;;;;;;;;;;;;;5092688;28;888;-67
2022/04/25 16:36:32;;;;;;;;;;;;;;;;;;5092477;28;1235;-67
2022/04/25 16:38:58;;;;;;;;;;;;;;;;;;5092831;28;817;-67
2022/04/25 16:41:23;;;;;;;;;;;;;;;;;;5093127;28;988;-67
2022/04/25 16:43:48;;;;;;;;;;;;;;;;;;5091988;28;1902;-67
2022/04/25 16:46:14;;;;;;;;;;;;;;;;;;5092112;28;1274;-67
2022/04/25 16:48:39;;;;;;;;;;;;;;;;;;5093019;28;781;-67
2022/04/25 16:51:05;;;;;;;;;;;;;;;;;;5092242;28;900;-68
2022/04/25 16:53:32;;;;;;;;;;;;;;;;;;5092420;28;860;-67
2022/04/25 16:55:58;;;;;;;;;;;;;;;;;;5091187;28;819;-67
2022/04/25 16:58:23;;;;;;;;;;;;;;;;;;5092292;28;1007;-67
2022/04/25 17:00:49;;;;;;;;;;;;;;;;;;5093042;28;833;-67
2022/04/25 17:03:14;;;;;;;;;;;;;;;;;;5090412;28;1918;-67
2022/04/25 17:05:39;;;;;;;;;;;;;;;;;;5092342;28;1238;-67
2022/04/25 17:08:05;;;;;;;;;;;;;;;;;;5092985;28;1034;-67
2022/04/25 17:10:30;;;;;;;;;;;;;;;;;;5091834;28;1373;-67
2022/04/25 17:12:55;;;;;;;;;;;;;;;;;;5075442;28;1256;-67
2022/04/25 17:15:21;;;;;;;;;;;;;;;;;;5092761;28;919;-66
2022/04/25 17:17:46;;;;;;;;;;;;;;;;;;5091812;28;1356;-67
2022/04/25 17:20:12;;;;;;;;;;;;;;;;;;5092659;28;991;-67
2022/04/25 17:22:37;;;;;;;;;;;;;;;;;;5092749;28;1909;-67
2022/04/25 17:25:03;;;;;;;;;;;;;;;;;;5091432;28;1383;-66
2022/04/25 17:27:28;;;;;;;;;;;;;;;;;;5091515;28;897;-67
2022/04/25 17:29:54;;;;;;;;;;;;;;;;;;5092752;28;837;-67
